Time;durP1;ratioP1;P1;durP2;ratioP2;P2;SDS_P1;SDS_P2;PMS_P1;PMS_P2;Temp;Humidity;BMP_temperature;BMP_pressure;BME280_temperature;BME280_humidity;BME280_pressure;Samples;Min_cycle;Max_cycle;Signal;HPM_P1;HPM_P2
2022/02/02 00:01:55;;;;;;;25.45;16.80;;;;;;;13.44;46.80;99722.67;1657843;84;21004;-62
2022/02/02 00:04:17;;;;;;;26.75;16.50;;;;;;;13.24;46.94;99719.71;1653254;86;21118;-60
2022/02/02 00:06:53;;;;;;;22.52;15.18;;;;;;;13.35;46.77;99719.02;1655014;86;21003;-60
2022/02/02 00:09:14;;;;;;;18.17;13.08;;;;;;;13.34;46.80;99710.87;1651297;86;20940;-59
2022/02/02 00:17:16;;;;;;;21.87;15.55;;;;;;;13.27;47.22;99702.79;1637783;86;21088;-60
2022/02/02 00:19:45;;;;;;;24.47;18.00;;;;;;;13.38;47.01;99706.02;1655822;86;22660;-59
2022/02/02 00:22:17;;;;;;;26.97;17.57;;;;;;;13.23;47.17;99702.41;1655514;86;21055;-59
2022/02/02 00:27:18;;;;;;;25.00;16.12;;;;;;;13.60;46.57;99703.81;1656903;86;21520;-72
2022/02/02 00:29:51;;;;;;;16.37;11.45;;;;;;;13.45;46.65;99702.02;1656292;86;22533;-59
2022/02/02 00:34:47;;;;;;;17.70;12.60;;;;;;;13.52;46.61;99696.21;1656503;86;21018;-77
2022/02/02 00:37:15;;;;;;;20.45;14.70;;;;;;;13.61;46.53;99689.70;1655836;86;21149;-59
2022/02/02 00:39:42;;;;;;;23.83;15.30;;;;;;;13.81;45.89;99694.73;1656014;86;21181;-60
2022/02/02 00:42:09;;;;;;;24.70;18.32;;;;;;;13.73;45.62;99693.70;1656221;86;21125;-59
2022/02/02 00:44:41;;;;;;;23.70;17.07;;;;;;;13.42;46.01;99699.33;1656741;86;21026;-60
2022/02/02 00:47:06;;;;;;;25.05;19.20;;;;;;;13.35;46.10;99695.97;1654216;86;21084;-73
2022/02/02 00:49:33;;;;;;;26.90;19.00;;;;;;;13.45;45.97;99698.08;1656354;86;21448;-60
2022/02/02 00:52:00;;;;;;;27.45;18.98;;;;;;;13.23;46.37;99696.35;1629628;86;21543;-59
2022/02/02 00:54:28;;;;;;;25.68;17.92;;;;;;;13.16;46.50;99700.32;1656515;86;21043;-59
2022/02/02 00:56:55;;;;;;;26.90;18.60;;;;;;;13.11;46.64;99696.25;1653285;85;20963;-65
2022/02/02 00:59:22;;;;;;;28.02;20.05;;;;;;;13.29;46.42;99695.51;1655917;86;21576;-60
2022/02/02 01:01:49;;;;;;;23.52;17.75;;;;;;;13.34;46.42;99693.86;1656033;86;21159;-59
2022/02/02 01:04:16;;;;;;;22.65;16.62;;;;;;;13.53;46.06;99696.52;1656648;85;21485;-59
2022/02/02 01:06:53;;;;;;;17.07;13.50;;;;;;;13.44;46.04;99703.83;1657332;86;20967;-59
2022/02/02 01:19:33;;;;;;;17.20;12.90;;;;;;;13.26;46.29;99702.47;1657391;85;21192;-60
2022/02/02 01:22:18;;;;;;;17.42;13.53;;;;;;;13.32;46.07;99695.88;1655819;86;20951;-60
2022/02/02 01:29:57;;;;;;;18.73;13.18;;;;;;;13.01;46.91;99671.85;1656679;86;21109;-60
2022/02/02 01:32:23;;;;;;;18.35;12.60;;;;;;;13.22;46.89;99661.53;1656932;86;21489;-73
2022/02/02 01:34:50;;;;;;;18.75;13.65;;;;;;;13.24;46.67;99673.91;1657465;86;21114;-59
2022/02/02 01:37:19;;;;;;;21.25;14.73;;;;;;;13.40;46.49;99690.88;1656929;86;21035;-60
2022/02/02 01:39:50;;;;;;;18.35;13.60;;;;;;;13.46;46.34;99693.96;1656949;86;21819;-59
2022/02/02 01:42:17;;;;;;;18.87;13.18;;;;;;;13.47;46.31;99697.38;1656849;85;21015;-74
2022/02/02 01:44:54;;;;;;;20.82;13.75;;;;;;;13.24;46.75;99694.84;1655860;86;21764;-60
2022/02/02 01:47:16;;;;;;;16.00;11.30;;;;;;;13.38;46.55;99683.25;1655896;86;21094;-59
2022/02/02 01:55:01;;;;;;;19.37;13.20;;;;;;;13.08;47.36;99677.84;1657490;86;21059;-59
2022/02/02 01:57:58;;;;;;;19.00;12.63;;;;;;;12.77;47.90;99680.48;1657178;86;21512;-60
2022/02/02 02:00:11;;;;;;;21.12;13.20;;;;;;;12.80;48.02;99671.68;1654295;86;20959;-59
2022/02/02 02:02:40;;;;;;;17.57;12.55;;;;;;;13.01;47.98;99674.47;1656195;86;21015;-63
2022/02/02 02:05:09;;;;;;;17.57;12.98;;;;;;;13.08;47.85;99682.27;1658201;85;22438;-63
2022/02/02 02:07:37;;;;;;;17.10;13.25;;;;;;;13.09;47.95;99669.48;1657989;86;21454;-67
2022/02/02 02:10:05;;;;;;;18.57;13.78;;;;;;;13.04;47.81;99667.50;1656369;86;21031;-70
2022/02/02 02:12:47;;;;;;;20.17;14.60;;;;;;;12.95;47.90;99654.89;1658098;86;21113;-59
2022/02/02 02:15:08;;;;;;;21.75;16.02;;;;;;;12.94;47.83;99646.24;1655698;86;21071;-59
2022/02/02 02:17:35;;;;;;;20.57;15.63;;;;;;;12.95;47.70;99648.34;1656716;86;21216;-63
2022/02/02 02:20:02;;;;;;;23.07;15.58;;;;;;;13.18;47.45;99636.78;1656573;86;21043;-61
2022/02/02 02:22:35;;;;;;;19.27;14.28;;;;;;;13.10;47.44;99635.74;1657215;85;21046;-60
2022/02/02 02:24:59;;;;;;;20.48;14.18;;;;;;;12.89;47.83;99628.58;1656724;86;21157;-59
2022/02/02 02:27:26;;;;;;;21.65;13.85;;;;;;;12.77;48.11;99632.10;1657858;86;21516;-60
2022/02/02 02:37:40;;;;;;;24.37;16.93;;;;;;;13.25;47.42;99649.33;1658219;85;21003;-70
2022/02/02 02:56:18;;;;;;;51.28;29.48;;;;;;;13.00;46.89;99627.59;1656118;86;21095;-59
2022/02/02 03:01:29;;;;;;;45.85;28.20;;;;;;;12.78;47.25;99616.70;1657384;86;21085;-61
2022/02/02 03:51:08;;;;;;;36.23;23.98;;;;;;;12.42;48.71;99588.07;1661015;84;21244;-69
2022/02/02 03:59:00;;;;;;;49.85;29.82;;;;;;;12.59;48.62;99587.86;1660259;84;21430;-61
2022/02/02 04:06:25;;;;;;;40.60;26.50;;;;;;;12.58;48.48;99582.86;1689852;84;21067;-60
2022/02/02 04:08:52;;;;;;;40.15;25.75;;;;;;;12.43;48.71;99588.90;1706142;84;21024;-61
2022/02/02 04:11:36;;;;;;;36.85;23.62;;;;;;;12.83;48.07;99579.72;1743242;82;21048;-60
2022/02/02 04:15:08;;;;;;;32.30;20.88;;;;;;;12.94;47.88;99583.45;1741001;82;21055;-60
2022/02/02 04:55:00;;;;;;;24.18;13.78;;;;;;;13.37;47.91;99582.19;1740159;82;21044;-60
2022/02/02 05:05:52;;;;;;;27.52;16.02;;;;;;;13.22;48.20;99586.11;1741769;82;20990;-68
2022/02/02 05:08:27;;;;;;;26.00;15.40;;;;;;;13.17;48.09;99593.83;1741818;82;21097;-62
2022/02/02 05:16:27;;;;;;;23.07;14.87;;;;;;;13.45;47.43;99580.27;1735957;82;20935;-62
2022/02/02 05:19:05;;;;;;;21.93;14.38;;;;;;;13.00;48.25;99576.07;1738445;82;20915;-61
2022/02/02 05:45:39;;;;;;;26.68;17.30;;;;;;;13.25;47.88;99578.66;1717569;82;22144;-61
2022/02/02 05:53:23;;;;;;;26.52;14.75;;;;;;;13.11;48.96;99584.52;1725830;82;21011;-60
2022/02/02 05:55:51;;;;;;;21.17;14.75;;;;;;;13.43;48.52;99591.48;1728291;82;21042;-61
2022/02/02 05:58:20;;;;;;;23.42;17.07;;;;;;;13.41;48.56;99582.55;1727670;82;20977;-64
2022/02/02 06:00:46;;;;;;;30.20;19.25;;;;;;;13.54;48.39;99582.91;1722731;82;21049;-66
2022/02/02 06:03:14;;;;;;;32.63;20.02;;;;;;;13.66;48.46;99582.45;1727734;82;21212;-61
2022/02/02 06:05:42;;;;;;;21.35;15.32;;;;;;;13.85;48.08;99580.11;1720360;82;20937;-70
2022/02/02 06:08:13;;;;;;;30.50;17.12;;;;;;;13.40;48.61;99577.00;1720016;82;21481;-63
2022/02/02 06:10:41;;;;;;;26.82;16.70;;;;;;;13.54;48.99;99578.47;1691281;83;21391;-61
2022/02/02 06:13:09;;;;;;;28.15;17.70;;;;;;;13.51;49.22;99582.03;1686632;84;20948;-62
2022/02/02 06:15:36;;;;;;;24.92;17.60;;;;;;;13.68;49.19;99577.02;1684074;84;21115;-70
2022/02/02 06:18:04;;;;;;;27.10;18.23;;;;;;;14.20;48.44;99570.27;1667031;85;21069;-60
2022/02/02 06:20:33;;;;;;;28.85;19.37;;;;;;;14.07;48.51;99563.91;1687734;84;21559;-62
2022/02/02 06:23:05;;;;;;;30.12;18.85;;;;;;;14.20;48.63;99563.71;1682293;84;21746;-61
2022/02/02 06:25:34;;;;;;;29.37;18.07;;;;;;;14.31;48.52;99571.33;1695161;84;20995;-68
2022/02/02 06:28:03;;;;;;;30.52;17.95;;;;;;;14.33;48.35;99570.61;1688291;84;21095;-68
2022/02/02 06:30:31;;;;;;;30.85;19.82;;;;;;;14.25;48.71;99578.28;1678526;84;21106;-63
2022/02/02 06:33:08;;;;;;;34.35;20.35;;;;;;;14.50;48.12;99566.84;1691551;84;21043;-61
2022/02/02 06:35:36;;;;;;;34.23;21.23;;;;;;;14.38;48.25;99566.00;1688043;84;21007;-61
2022/02/02 06:38:05;;;;;;;34.03;20.45;;;;;;;14.19;48.85;99572.61;1687761;84;21537;-67
2022/02/02 06:40:33;;;;;;;37.58;20.52;;;;;;;14.14;49.28;99579.04;1696027;83;21194;-61
2022/02/02 06:43:00;;;;;;;29.32;19.65;;;;;;;14.44;48.45;99565.11;1699474;83;21498;-62
2022/02/02 06:45:27;;;;;;;28.10;18.10;;;;;;;14.55;48.29;99561.74;1684348;84;20916;-66
2022/02/02 06:47:54;;;;;;;27.87;18.30;;;;;;;14.72;47.71;99566.59;1654698;85;22174;-67
2022/02/02 06:50:28;;;;;;;27.27;17.98;;;;;;;14.70;47.71;99566.04;1680347;84;21149;-62
2022/02/02 06:53:35;;;;;;;25.73;16.80;;;;;;;14.71;47.62;99565.00;1686904;83;21963;-61
2022/02/02 06:56:42;;;;;;;24.07;15.80;;;;;;;14.59;48.01;99564.20;1690821;84;21611;-60
2022/02/02 07:02:01;;;;;;;28.17;16.00;;;;;;;14.62;47.84;99562.92;1688822;84;21475;-61
2022/02/02 07:07:25;;;;;;;27.20;18.45;;;;;;;14.82;47.79;99560.28;1679811;85;21908;-63
2022/02/02 07:12:33;;;;;;;27.27;18.65;;;;;;;15.16;47.07;99557.88;1670071;84;21094;-62
2022/02/02 07:15:16;;;;;;;28.42;18.40;;;;;;;15.09;46.74;99550.12;1675082;85;21332;-62
2022/02/02 07:17:49;;;;;;;24.18;17.77;;;;;;;15.12;46.84;99552.80;1680106;84;20957;-66
2022/02/02 07:20:17;;;;;;;;;;;;;;;15.06;47.01;99557.13;1678594;85;21832;-62
2022/02/02 07:30:41;;;;;;;36.75;23.77;;;;;;;14.81;47.16;99553.93;1678863;84;21004;-62
2022/02/02 07:33:07;;;;;;;31.77;21.75;;;;;;;14.96;46.97;99555.59;1674264;85;21970;-66
2022/02/02 07:35:34;;;;;;;31.75;20.92;;;;;;;14.98;47.36;99552.23;1679998;84;25199;-59
2022/02/02 07:38:08;;;;;;;32.40;22.22;;;;;;;15.28;47.14;99544.73;1674625;85;21587;-64
2022/02/02 07:40:35;;;;;;;32.45;23.62;;;;;;;15.22;47.34;99539.88;1676906;85;21104;-62
2022/02/02 07:43:03;;;;;;;36.93;23.87;;;;;;;15.32;47.36;99527.48;1674765;85;21091;-61
2022/02/02 07:45:31;;;;;;;32.55;22.25;;;;;;;15.56;46.99;99525.59;1679553;84;21165;-60
2022/02/02 07:48:01;;;;;;;37.45;23.77;;;;;;;15.72;46.71;99527.52;1674708;85;21123;-61
2022/02/02 07:50:33;;;;;;;33.63;21.12;;;;;;;15.58;47.39;99537.98;1679399;84;20936;-61
2022/02/02 07:53:05;;;;;;;27.32;18.02;;;;;;;15.64;47.89;99571.70;1674479;85;21096;-61
2022/02/02 07:55:29;;;;;;;24.67;16.25;;;;;;;15.51;47.74;99578.03;1680039;84;21604;-60
2022/02/02 07:57:58;;;;;;;26.27;16.77;;;;;;;15.54;47.40;99573.11;1674435;85;21552;-60
2022/02/02 08:00:24;;;;;;;26.62;17.00;;;;;;;15.44;47.66;99565.54;1675967;85;21028;-60
2022/02/02 08:05:29;;;;;;;26.75;17.12;;;;;;;15.56;47.68;99567.61;1704977;84;21034;-59
2022/02/02 08:08:11;;;;;;;31.68;18.25;;;;;;;15.46;48.37;99566.91;1703908;84;21106;-62
2022/02/02 08:10:27;;;;;;;32.10;18.73;;;;;;;16.13;46.90;99560.30;1705388;84;21141;-60
2022/02/02 08:13:08;;;;;;;33.90;20.88;;;;;;;15.83;47.66;99563.96;1703049;84;21002;-59
2022/02/02 08:15:33;;;;;;;33.85;20.50;;;;;;;15.80;48.06;99567.88;1676648;84;21067;-59
2022/02/02 08:17:59;;;;;;;37.83;23.15;;;;;;;15.79;48.60;99568.89;1690980;83;22410;-59
2022/02/02 08:20:26;;;;;;;36.33;20.85;;;;;;;15.81;48.75;99562.90;1678272;84;21113;-59
2022/02/02 08:22:52;;;;;;;37.03;22.73;;;;;;;16.01;48.55;99562.98;1693364;83;22208;-63
2022/02/02 08:25:30;;;;;;;37.83;23.90;;;;;;;15.97;48.62;99556.09;1728582;82;21065;-64
2022/02/02 08:28:01;;;;;;;33.30;21.37;;;;;;;15.89;49.21;99553.84;1718985;82;21528;-59
2022/02/02 08:30:29;;;;;;;35.90;22.62;;;;;;;15.95;49.42;99554.23;1733832;82;21548;-66
2022/02/02 08:33:01;;;;;;;33.85;21.95;;;;;;;16.10;49.24;99556.83;1731299;82;21452;-62
2022/02/02 08:35:35;;;;;;;35.83;21.65;;;;;;;16.19;49.40;99555.42;1739877;82;21158;-61
2022/02/02 08:40:43;;;;;;;33.78;22.55;;;;;;;16.61;48.90;99553.74;1732880;82;21393;-68
2022/02/02 08:43:11;;;;;;;32.90;21.57;;;;;;;16.74;48.82;99556.06;1727293;82;21008;-60
2022/02/02 08:45:33;;;;;;;36.63;21.95;;;;;;;16.84;48.15;99551.48;1733737;82;21579;-61
2022/02/02 08:48:05;;;;;;;30.47;20.50;;;;;;;17.07;48.23;99555.76;1728420;82;21157;-62
2022/02/02 08:51:07;;;;;;;30.82;20.35;;;;;;;17.18;48.22;99549.06;1726528;82;21788;-61
2022/02/02 08:53:14;;;;;;;35.67;22.50;;;;;;;17.32;47.55;99548.72;1713264;82;21001;-61
2022/02/02 08:58:30;;;;;;;31.67;20.93;;;;;;;17.43;46.46;99533.31;1726905;82;20995;-69
2022/02/02 09:00:52;;;;;;;30.27;19.73;;;;;;;17.46;46.29;99533.63;1720545;82;21327;-61
2022/02/02 09:06:04;;;;;;;37.97;24.00;;;;;;;17.18;46.23;99528.00;1669617;84;21387;-62
2022/02/02 09:08:33;;;;;;;54.77;38.73;;;;;;;17.60;45.47;99526.13;1692218;83;21300;-61
2022/02/02 09:35:32;;;;;;;42.50;35.13;;;;;;;17.91;44.27;99503.53;1598560;89;21954;-58
2022/02/02 09:38:01;;;;;;;29.20;21.27;;;;;;;18.10;43.80;99502.65;1657038;84;21334;-73
2022/02/02 09:43:20;;;;;;;33.23;21.67;;;;;;;18.21;42.98;99490.34;1656254;85;22664;-61
2022/02/02 09:45:52;;;;;;;34.63;21.10;;;;;;;18.06;43.24;99494.97;1679000;83;21218;-60
2022/02/02 09:48:28;;;;;;;33.07;22.20;;;;;;;18.10;43.07;99492.09;1678707;83;21319;-66
2022/02/02 09:50:52;;;;;;;33.88;21.10;;;;;;;18.01;43.08;99491.50;1701890;83;21830;-60
2022/02/02 09:53:30;;;;;;;32.90;21.97;;;;;;;17.99;42.95;99500.47;1699546;83;21101;-72
2022/02/02 09:55:56;;;;;;;35.30;23.07;;;;;;;17.74;42.85;99497.02;1701121;83;21158;-67
2022/02/02 09:58:28;;;;;;;32.30;21.00;;;;;;;17.80;42.62;99490.50;1689272;83;21183;-74
2022/02/02 10:01:15;;;;;;;32.27;19.97;;;;;;;17.85;42.71;99487.41;1696622;83;21432;-60
2022/02/02 10:03:52;;;;;;;30.43;21.00;;;;;;;18.01;42.84;99483.06;1668400;85;21164;-61
2022/02/02 10:06:50;;;;;;;29.80;20.27;;;;;;;18.21;42.39;99473.20;1682714;84;22028;-61
2022/02/02 10:12:31;;;;;;;30.63;20.83;;;;;;;18.13;42.99;99469.19;1739424;82;21675;-61
2022/02/02 10:14:16;;;;;;;31.35;21.20;;;;;;;18.38;42.72;99461.20;1720078;82;21680;-63
2022/02/02 10:16:45;;;;;;;30.40;20.33;;;;;;;18.29;42.50;99460.06;1722275;82;21507;-63
2022/02/02 10:19:18;;;;;;;34.03;23.80;;;;;;;18.40;42.46;99461.20;1742072;81;21135;-67
2022/02/02 10:21:44;;;;;;;31.80;22.83;;;;;;;18.46;42.65;99455.45;1741092;81;21359;-62
2022/02/02 10:24:11;;;;;;;34.33;24.13;;;;;;;18.44;42.38;99453.58;1740526;82;22365;-75
2022/02/02 10:26:50;;;;;;;31.53;22.70;;;;;;;18.57;42.46;99448.39;1740460;82;21222;-65
2022/02/02 10:29:17;;;;;;;34.63;23.70;;;;;;;18.53;42.04;99446.79;1726523;82;21119;-67
2022/02/02 10:31:47;;;;;;;31.00;23.30;;;;;;;18.45;42.17;99436.19;1740486;82;21265;-61
2022/02/02 10:34:17;;;;;;;30.37;21.43;;;;;;;18.43;42.28;99438.80;1741561;82;21190;-65
2022/02/02 10:36:44;;;;;;;29.53;20.00;;;;;;;17.90;42.86;99440.52;1738063;81;21362;-65
2022/02/02 10:39:16;;;;;;;31.70;19.23;;;;;;;17.84;43.03;99433.09;1743482;82;20944;-70
2022/02/02 10:41:52;;;;;;;30.55;19.67;;;;;;;17.77;43.41;99425.92;1741942;82;21259;-62
2022/02/02 10:44:25;;;;;;;30.77;20.73;;;;;;;17.72;43.39;99435.84;1741776;82;21149;-66
2022/02/02 10:46:56;;;;;;;30.07;19.63;;;;;;;17.64;43.41;99425.75;1740971;82;21117;-61
2022/02/02 10:49:30;;;;;;;29.60;21.60;;;;;;;17.76;43.07;99428.25;1735248;82;21224;-62
2022/02/02 10:51:55;;;;;;;28.53;21.23;;;;;;;17.84;42.91;99417.78;1737032;82;21747;-72
2022/02/02 10:57:14;;;;;;;32.83;21.37;;;;;;;17.92;42.77;99417.34;1744628;81;22194;-69
2022/02/02 10:59:59;;;;;;;30.60;20.90;;;;;;;17.93;42.83;99409.17;1741153;81;21137;-64
2022/02/02 11:07:41;;;;;;;85.70;56.53;;;;;;;17.96;42.59;99408.67;1745053;82;21634;-62
2022/02/02 11:10:12;;;;;;;50.33;30.63;;;;;;;17.82;42.73;99406.70;1745160;82;21295;-78
2022/02/02 11:12:39;;;;;;;38.45;29.60;;;;;;;17.97;42.59;99408.14;1746981;82;21110;-67
2022/02/02 11:15:21;;;;;;;34.07;23.40;;;;;;;17.87;42.63;99406.73;1701473;82;20974;-62
2022/02/02 11:18:16;;;;;;;37.17;25.05;;;;;;;17.90;42.55;99409.66;1736578;82;21088;-62
2022/02/02 11:20:42;;;;;;;30.17;20.70;;;;;;;17.96;42.38;99415.79;1734376;82;20933;-62
2022/02/02 11:23:09;;;;;;;30.27;20.67;;;;;;;18.08;42.12;99411.66;1743690;82;21306;-62
2022/02/02 11:25:39;;;;;;;32.30;22.10;;;;;;;18.04;41.93;99421.91;1740751;81;21250;-77
2022/02/02 11:28:27;;;;;;;34.83;24.50;;;;;;;18.21;41.58;99411.21;1738948;82;21190;-63
2022/02/02 11:31:16;;;;;;;26.07;18.20;;;;;;;18.26;41.28;99411.27;1738569;82;21355;-66
2022/02/02 11:33:52;;;;;;;34.83;23.23;;;;;;;18.17;41.32;99412.77;1739567;82;21311;-77
2022/02/02 11:36:36;;;;;;;28.97;21.70;;;;;;;18.30;40.91;99404.95;1737342;82;21702;-64
2022/02/02 11:39:03;;;;;;;30.93;21.93;;;;;;;18.35;40.86;99407.61;1743966;82;21300;-70
2022/02/02 11:41:48;;;;;;;84.40;43.57;;;;;;;17.98;41.37;99415.00;1689476;82;21732;-69
2022/02/02 11:44:17;;;;;;;580.60;452.37;;;;;;;17.99;40.99;99408.67;1702242;82;21352;-63
2022/02/02 11:47:09;;;;;;;837.57;484.13;;;;;;;17.65;41.06;99414.68;1727862;82;21485;-78
2022/02/02 11:52:44;;;;;;;199.40;148.73;;;;;;;17.57;41.40;99413.30;1733175;82;21253;-64
2022/02/02 11:55:20;;;;;;;77.50;59.13;;;;;;;17.41;41.66;99424.21;1734849;82;21213;-62
2022/02/02 11:58:12;;;;;;;53.23;34.53;;;;;;;17.36;41.77;99420.74;1735002;82;21087;-79
2022/02/02 12:00:46;;;;;;;44.10;28.07;;;;;;;17.31;41.79;99420.14;1733988;82;21447;-66
2022/02/02 12:57:46;;;;;;;31.87;23.47;;;;;;;16.78;41.96;99417.19;1728291;82;21765;-73
2022/02/02 13:00:20;;;;;;;36.38;24.07;;;;;;;16.65;42.05;99420.13;1725051;82;21007;-63
2022/02/02 13:02:42;;;;;;;35.17;24.57;;;;;;;16.51;42.38;99418.88;1731276;82;20988;-63
2022/02/02 13:05:10;;;;;;;33.48;22.73;;;;;;;16.60;42.25;99427.17;1729106;82;20975;-63
2022/02/02 13:07:37;;;;;;;31.20;22.67;;;;;;;16.48;42.42;99427.28;1731928;82;21007;-63
2022/02/02 13:10:07;;;;;;;37.20;23.47;;;;;;;16.74;42.09;99429.25;1730552;82;22383;-63
2022/02/02 13:18:09;;;;;;;32.75;21.52;;;;;;;16.80;42.00;99434.56;1729030;82;20987;-64
2022/02/02 13:20:47;;;;;;;36.38;23.47;;;;;;;16.25;42.75;99425.11;1729159;82;21047;-65
2022/02/02 13:25:57;;;;;;;31.35;21.95;;;;;;;16.18;43.29;99429.73;1726993;82;21031;-64
2022/02/02 13:28:56;;;;;;;35.33;23.38;;;;;;;16.09;43.45;99425.09;1722082;82;21530;-65
2022/02/02 13:31:39;;;;;;;38.13;24.92;;;;;;;16.09;43.37;99420.64;1728627;82;21450;-66
2022/02/02 13:34:43;;;;;;;40.67;28.73;;;;;;;16.00;43.48;99419.45;1688619;84;21071;-78
2022/02/02 13:37:54;;;;;;;41.00;26.75;;;;;;;16.21;43.35;99425.31;1698408;82;21196;-66
2022/02/02 13:46:05;;;;;;;48.42;28.92;;;;;;;16.25;43.99;99438.26;1731059;82;21028;-63
2022/02/02 14:02:16;;;;;;;18.87;12.70;;;;;;;15.86;44.29;99445.76;1725880;82;21136;-71
2022/02/02 14:31:26;;;;;;;174.27;93.80;;;;;;;15.50;44.98;99431.98;1727604;82;21755;-61
2022/02/02 14:33:55;;;;;;;67.08;40.03;;;;;;;15.45;45.02;99430.55;1726375;82;20942;-61
2022/02/02 14:36:25;;;;;;;38.13;20.52;;;;;;;15.13;45.54;99428.91;1719602;82;20998;-61
2022/02/02 14:41:38;;;;;;;40.28;32.98;;;;;;;15.11;45.85;99438.31;1719770;82;20998;-61
2022/02/02 14:44:11;;;;;;;29.82;22.90;;;;;;;15.05;45.91;99438.74;1723104;81;21126;-60
2022/02/02 14:47:24;;;;;;;31.85;20.50;;;;;;;15.11;45.77;99438.31;1734521;82;21501;-65
2022/02/02 14:49:09;;;;;;;31.25;19.60;;;;;;;15.29;45.71;99447.34;1721124;82;21585;-61
2022/02/02 14:55:23;;;;;;;;;;;;;;;;;;;;;
2022/02/02 15:33:14;;;;;;;60.78;33.88;;;;;;;14.43;46.83;99465.95;1739626;82;20983;-61
2022/02/02 15:35:40;;;;;;;89.65;40.90;;;;;;;14.23;47.31;99466.80;1740093;81;21082;-63
2022/02/02 15:38:15;;;;;;;48.52;30.60;;;;;;;14.21;47.56;99466.25;1738443;82;21145;-59
2022/02/02 15:40:45;;;;;;;42.73;27.20;;;;;;;14.03;47.85;99462.67;1740400;82;20987;-60
2022/02/02 15:43:25;;;;;;;38.02;25.57;;;;;;;14.34;47.67;99456.84;1740060;81;21555;-61
2022/02/02 16:00:03;;;;;;;44.40;28.40;;;;;;;14.51;47.14;99455.70;1741799;82;20934;-59
2022/02/02 16:02:13;;;;;;;46.37;29.25;;;;;;;14.46;47.22;99452.39;1738663;82;21150;-68
2022/02/02 16:04:39;;;;;;;44.33;27.98;;;;;;;14.49;47.31;99453.28;1742259;81;21034;-62
2022/02/02 16:07:08;;;;;;;38.13;24.67;;;;;;;14.55;47.10;99455.52;1740767;82;21508;-60
2022/02/02 16:09:44;;;;;;;46.85;27.77;;;;;;;14.42;47.15;99461.74;1734287;82;21092;-65
2022/02/02 16:12:09;;;;;;;42.70;27.82;;;;;;;14.53;46.78;99462.30;1738990;81;21042;-64
2022/02/02 16:14:40;;;;;;;44.63;28.87;;;;;;;14.63;46.54;99463.05;1740757;81;21158;-60
2022/02/02 16:17:15;;;;;;;43.42;27.15;;;;;;;14.64;46.40;99460.70;1740711;81;21476;-59
2022/02/02 16:24:37;;;;;;;50.92;30.20;;;;;;;14.61;46.33;99454.59;1738108;81;21535;-67
2022/02/02 16:25:04;;;;;;;41.00;27.70;;;;;;;14.40;46.57;99462.50;1734936;82;20981;-63
2022/02/02 16:33:25;;;;;;;44.88;27.13;;;;;;;14.54;46.59;99466.50;1733323;82;21137;-68
2022/02/02 16:38:12;;;;;;;37.70;26.20;;;;;;;14.71;46.14;99465.84;1733215;81;21090;-60
2022/02/02 16:40:39;;;;;;;40.85;27.02;;;;;;;14.82;46.33;99467.66;1697192;84;22369;-61
2022/02/02 16:43:15;;;;;;;39.27;26.30;;;;;;;14.46;46.69;99464.71;1735272;82;21141;-62
2022/02/02 16:45:49;;;;;;;39.98;25.88;;;;;;;14.51;46.42;99464.88;1713312;81;20921;-63
2022/02/02 16:48:16;;;;;;;37.58;24.95;;;;;;;14.57;46.44;99461.33;1706214;82;21062;-64
2022/02/02 16:50:46;;;;;;;40.60;25.77;;;;;;;14.79;45.82;99460.23;1707423;82;20959;-63
2022/02/02 17:31:08;;;;;;;45.08;28.47;;;;;;;14.28;45.84;99440.20;1709273;82;21029;-60
2022/02/02 17:33:38;;;;;;;39.55;25.35;;;;;;;14.29;45.64;99432.62;1708609;82;21088;-61
2022/02/02 17:38:44;;;;;;;42.17;27.45;;;;;;;14.17;45.65;99433.62;1707982;82;21043;-62
2022/02/02 17:41:16;;;;;;;44.45;28.30;;;;;;;13.88;46.29;99440.81;1706441;82;21092;-60
2022/02/02 17:44:05;;;;;;;43.40;28.47;;;;;;;13.76;46.60;99433.45;1705313;82;21008;-60
2022/02/02 18:20:47;;;;;;;47.53;31.68;;;;;;;13.74;46.04;99418.45;1734921;82;21022;-63
2022/02/02 18:23:35;;;;;;;50.43;34.45;;;;;;;13.76;45.86;99424.80;1732461;82;21445;-60
2022/02/02 18:29:20;;;;;;;44.90;29.80;;;;;;;13.32;46.19;99428.09;1725989;82;20959;-60
2022/02/02 18:36:12;;;;;;;39.18;24.63;;;;;;;13.10;47.06;99420.67;1734248;82;21180;-61
2022/02/02 18:39:34;;;;;;;37.85;26.02;;;;;;;13.20;46.91;99412.83;1728566;82;21150;-61
2022/02/02 18:44:22;;;;;;;34.78;21.77;;;;;;;13.20;46.91;99409.70;1733968;82;21447;-72
2022/02/02 18:49:08;;;;;;;34.67;22.10;;;;;;;13.07;46.90;99406.74;1732276;82;21009;-61
2022/02/02 18:56:46;;;;;;;38.45;23.87;;;;;;;13.36;46.70;99401.77;1661761;82;21150;-65
2022/02/02 18:59:18;;;;;;;35.33;23.20;;;;;;;13.26;46.80;99403.62;1731902;81;21070;-68
2022/02/02 19:01:42;;;;;;;42.80;26.10;;;;;;;13.23;46.76;99400.61;1727451;82;21153;-60
2022/02/02 19:04:29;;;;;;;38.38;25.68;;;;;;;13.11;47.17;99395.33;1733861;81;21527;-70
2022/02/02 19:31:46;;;;;;;34.08;22.05;;;;;;;12.90;47.90;99387.41;1734058;82;21159;-59
2022/02/02 19:56:10;;;;;;;31.97;22.65;;;;;;;12.72;48.72;99371.73;1731702;82;21054;-61
2022/02/02 20:06:47;;;;;;;34.98;24.95;;;;;;;13.01;48.03;99368.88;1732334;82;21002;-61
2022/02/02 20:11:44;;;;;;;31.48;23.45;;;;;;;12.93;48.23;99366.06;1728721;82;21132;-60
2022/02/02 20:14:12;;;;;;;30.32;22.07;;;;;;;12.74;48.48;99369.20;1732256;82;21205;-60
2022/02/02 20:16:38;;;;;;;32.88;23.20;;;;;;;12.44;49.28;99366.50;1732088;82;21021;-60
2022/02/02 20:19:08;;;;;;;31.50;24.37;;;;;;;12.51;49.73;99365.13;1730603;82;21439;-63
2022/02/02 20:21:42;;;;;;;34.08;24.87;;;;;;;12.53;49.37;99363.09;1728823;82;21050;-71
2022/02/02 20:24:06;;;;;;;32.95;22.35;;;;;;;12.67;49.57;99356.70;1701857;82;21300;-61
2022/02/02 20:26:35;;;;;;;30.72;20.85;;;;;;;12.84;49.01;99355.59;1730860;82;20919;-60
2022/02/02 20:29:02;;;;;;;28.62;20.95;;;;;;;12.82;48.92;99355.82;1727712;82;21049;-60
2022/02/02 20:31:32;;;;;;;27.17;20.00;;;;;;;12.75;49.01;99352.99;1729017;82;20920;-70
2022/02/02 20:34:00;;;;;;;28.23;20.72;;;;;;;12.82;48.89;99350.59;1728906;82;21113;-59
2022/02/02 20:36:26;;;;;;;30.12;23.02;;;;;;;13.01;48.48;99341.41;1729473;82;21139;-60
2022/02/02 20:38:53;;;;;;;33.70;22.82;;;;;;;13.00;48.43;99345.05;1727695;82;20953;-61
2022/02/02 20:41:19;;;;;;;25.35;18.27;;;;;;;12.95;48.47;99344.90;1727220;82;20967;-60
2022/02/02 20:43:53;;;;;;;27.10;20.00;;;;;;;12.73;48.99;99355.02;1727063;82;20962;-69
2022/02/02 21:10:32;;;;;;;24.23;17.82;;;;;;;13.31;47.98;99361.08;1740899;82;20989;-59
2022/02/02 21:15:44;;;;;;;22.15;16.02;;;;;;;13.58;47.30;99360.18;1741264;82;21818;-61
2022/02/02 21:18:14;;;;;;;22.37;15.93;;;;;;;13.38;47.66;99365.20;1740707;82;20993;-59
2022/02/02 21:20:58;;;;;;;21.85;16.87;;;;;;;13.08;48.16;99361.75;1740591;81;21528;-60
2022/02/02 21:28:39;;;;;;;22.85;15.68;;;;;;;13.36;47.68;99370.36;1742280;81;21213;-60
2022/02/02 21:31:06;;;;;;;22.85;15.85;;;;;;;13.44;47.43;99370.03;1741738;81;20962;-61
2022/02/02 21:33:36;;;;;;;21.48;16.07;;;;;;;13.09;47.90;99369.88;1741757;81;21021;-74
2022/02/02 21:36:02;;;;;;;24.35;17.00;;;;;;;13.33;47.59;99369.00;1737611;81;21544;-60
2022/02/02 21:38:37;;;;;;;21.45;15.25;;;;;;;13.50;47.17;99371.77;1742362;81;21433;-60
2022/02/02 21:40:59;;;;;;;20.82;15.13;;;;;;;13.62;47.12;99367.87;1740646;81;21174;-61
2022/02/02 21:43:28;;;;;;;24.55;17.02;;;;;;;13.85;46.59;99364.50;1738627;81;20975;-75
2022/02/02 21:45:58;;;;;;;22.60;16.40;;;;;;;13.77;46.68;99358.28;1740371;81;21070;-60
2022/02/02 21:48:33;;;;;;;18.52;14.63;;;;;;;13.70;46.48;99356.27;1740599;82;21000;-60
2022/02/02 21:51:03;;;;;;;22.32;16.05;;;;;;;13.75;46.49;99353.28;1744149;82;20963;-63
2022/02/02 21:53:26;;;;;;;22.93;16.97;;;;;;;13.82;46.29;99357.08;1739097;82;21154;-75
2022/02/02 21:55:53;;;;;;;22.13;15.98;;;;;;;13.84;46.21;99359.77;1744610;82;22326;-59
2022/02/02 21:58:19;;;;;;;20.65;16.05;;;;;;;13.70;46.60;99364.92;1744637;82;21073;-63
2022/02/02 22:04:03;;;;;;;22.13;17.02;;;;;;;13.45;47.38;99363.80;1680329;81;66030;-60